Archiv-/Tagesdaten

--Timestamp---	Temp	Chill	HIndex	Humid	Dewpt	Wind	HiWind	WindDir	Rain	Barom	Solar	ET	UV
--------------	----	-----	------	-----	-----	----	------	-------	----	-----	-----	--	--
20080314 00:05	5.0	3.1	5.0	75	0.9	8	19	247	0.00	1016.732	0	0.000	0
20080314 00:10	5.1	2.5	5.1	74	0.8	11	26	247	0.00	1016.698	0	0.000	0
20080314 00:15	5.1	2.8	5.1	74	0.8	10	16	247	0.00	1016.732	0	0.000	0
20080314 00:20	5.1	3.2	5.1	75	1.0	8	18	247	0.00	1016.631	0	0.000	0
20080314 00:25	5.1	2.9	5.1	74	0.9	10	23	247	0.00	1016.800	0	0.000	0
20080314 00:30	5.1	3.3	5.1	75	1.0	8	18	247	0.00	1016.732	0	0.000	0
20080314 00:35	5.1	2.8	5.1	74	0.8	10	19	247	0.00	1016.631	0	0.000	0
20080314 00:40	5.1	3.7	5.1	75	1.0	6	14	247	0.00	1016.461	0	0.000	0
20080314 00:45	5.1	2.9	5.1	74	0.9	10	21	247	0.00	1016.326	0	0.000	0
20080314 00:50	5.1	3.3	5.1	74	0.9	8	18	247	0.00	1016.427	0	0.000	0
20080314 00:55	5.1	3.7	5.1	75	1.0	6	16	247	0.00	1016.326	0	0.000	0
20080314 01:00	5.1	3.7	5.1	75	1.0	6	21	225	0.00	1016.258	0	0.020	0
20080314 01:05	5.1	3.7	5.1	75	1.0	6	18	247	0.00	1016.394	0	0.000	0
20080314 01:10	5.0	3.6	5.0	75	0.9	6	11	247	0.00	1016.427	0	0.000	0
20080314 01:15	5.0	3.6	5.0	75	0.9	6	14	247	0.00	1016.360	0	0.000	0
20080314 01:20	5.0	3.6	5.0	75	0.9	6	21	247	0.00	1016.427	0	0.000	0
20080314 01:25	5.0	3.1	5.0	75	0.9	8	19	247	0.00	1016.326	0	0.000	0
20080314 01:30	4.9	3.5	4.9	75	0.9	6	14	247	0.00	1016.360	0	0.000	0
20080314 01:35	4.9	3.0	4.9	76	1.0	8	18	247	0.00	1016.326	0	0.000	0
20080314 01:40	4.9	3.0	4.9	76	1.0	8	21	247	0.00	1016.326	0	0.000	0
20080314 01:45	4.8	2.9	4.8	76	1.0	8	16	247	0.00	1016.258	0	0.000	0
20080314 01:50	4.8	3.4	4.8	76	1.0	6	21	247	0.00	1016.156	0	0.000	0
20080314 01:55	4.8	4.8	4.8	77	1.1	5	11	247	0.00	1016.089	0	0.000	0
20080314 02:00	4.8	3.3	4.8	78	1.3	6	18	247	0.00	1016.156	0	0.020	0
20080314 02:05	4.7	3.3	4.7	78	1.2	6	14	247	0.00	1015.919	0	0.000	0
20080314 02:10	4.7	4.7	4.7	78	1.2	5	10	247	0.00	1015.784	0	0.000	0
20080314 02:15	4.7	4.7	4.7	78	1.2	5	14	247	0.00	1015.716	0	0.000	0
20080314 02:20	4.7	3.2	4.7	78	1.2	6	16	247	0.00	1015.750	0	0.000	0
20080314 02:25	4.7	4.7	4.7	78	1.2	3	10	225	0.00	1015.716	0	0.000	0
20080314 02:30	4.7	4.7	4.7	78	1.2	3	11	270	0.00	1015.716	0	0.000	0
20080314 02:35	4.7	4.7	4.7	78	1.2	3	10	247	0.00	1015.581	0	0.000	0
20080314 02:40	4.7	4.7	4.7	78	1.2	5	11	225	0.00	1015.479	0	0.000	0
20080314 02:45	4.7	4.7	4.7	78	1.2	5	8	225	0.00	1015.276	0	0.000	0
20080314 02:50	4.7	4.7	4.7	77	1.0	3	8	225	0.00	1015.073	0	0.000	0
20080314 02:55	4.7	4.7	4.7	77	1.0	3	10	225	0.00	1014.937	0	0.000	0
20080314 03:00	4.7	4.7	4.7	77	1.0	5	10	225	0.00	1014.904	0	0.020	0
20080314 03:05	4.7	4.7	4.7	77	1.0	5	10	225	0.00	1014.870	0	0.000	0
20080314 03:10	4.7	4.7	4.7	77	1.0	5	11	225	0.00	1014.836	0	0.000	0
20080314 03:15	4.7	4.7	4.7	77	1.0	5	14	247	0.00	1014.836	0	0.000	0
20080314 03:20	4.7	4.7	4.7	77	1.0	3	10	247	0.00	1014.802	0	0.000	0
20080314 03:25	4.7	4.7	4.7	77	1.0	3	8	247	0.00	1014.734	0	0.000	0
20080314 03:30	4.7	4.7	4.7	77	1.0	5	10	225	0.00	1014.802	0	0.000	0
20080314 03:35	4.7	4.7	4.7	77	1.0	3	11	247	0.00	1014.734	0	0.000	0
20080314 03:40	4.7	4.7	4.7	77	1.0	3	8	225	0.00	1014.700	0	0.000	0
20080314 03:45	4.7	4.7	4.7	77	1.0	3	10	225	0.00	1014.599	0	0.000	0
20080314 03:50	4.7	4.7	4.7	77	1.0	2	6	225	0.00	1014.531	0	0.000	0
20080314 03:55	4.7	4.7	4.7	78	1.2	2	6	225	0.00	1014.599	0	0.000	0
20080314 04:00	4.7	4.7	4.7	77	1.0	3	8	225	0.00	1014.531	0	0.020	0
20080314 04:05	4.7	4.7	4.7	76	0.9	3	8	202	0.00	1014.531	0	0.000	0
20080314 04:10	4.7	4.7	4.7	77	1.0	3	8	202	0.00	1014.497	0	0.000	0
20080314 04:15	4.7	4.7	4.7	78	1.2	3	6	202	0.00	1014.531	0	0.000	0
20080314 04:20	4.6	4.6	4.6	79	1.2	3	8	202	0.00	1014.396	0	0.000	0
20080314 04:25	4.4	4.4	4.4	79	1.1	3	8	202	0.00	1014.396	0	0.000	0
20080314 04:30	4.4	4.4	4.4	79	1.1	3	6	202	0.00	1014.362	0	0.000	0
20080314 04:35	4.3	4.3	4.3	79	1.0	5	10	202	0.00	1014.328	0	0.000	0
20080314 04:40	4.3	4.3	4.3	80	1.2	3	8	202	0.00	1014.226	0	0.000	0
20080314 04:45	4.3	4.3	4.3	80	1.1	3	10	202	0.00	1014.125	0	0.000	0
20080314 04:50	4.3	4.3	4.3	80	1.2	2	6	202	0.00	1014.023	0	0.000	0
20080314 04:55	4.3	4.3	4.3	79	1.0	5	19	202	0.00	1013.989	0	0.000	0
20080314 05:00	4.6	4.6	4.6	78	1.1	3	8	225	0.00	1013.955	0	0.020	0
20080314 05:05	4.6	4.6	4.6	78	1.1	3	8	202	0.00	1013.888	0	0.000	0
20080314 05:10	4.6	4.6	4.6	78	1.1	5	14	247	0.00	1013.786	0	0.000	0
20080314 05:15	4.7	3.3	4.7	78	1.2	6	16	247	0.00	1013.617	0	0.000	0
20080314 05:20	4.7	2.8	4.7	78	1.2	8	18	247	0.20	1013.583	0	0.000	0
20080314 05:25	4.7	3.3	4.7	79	1.4	6	19	225	0.00	1013.481	0	0.000	0
20080314 05:30	4.6	4.6	4.6	80	1.4	5	8	247	0.00	1013.651	0	0.000	0
20080314 05:35	4.4	4.4	4.4	81	1.4	5	18	247	0.20	1013.651	0	0.000	0
20080314 05:40	4.3	2.3	4.3	82	1.5	8	21	247	0.20	1013.617	0	0.000	0
20080314 05:45	4.2	4.2	4.2	83	1.5	5	11	247	0.00	1013.515	0	0.000	0
20080314 05:50	4.1	4.1	4.1	84	1.7	5	11	247	0.20	1013.447	0	0.000	0
20080314 05:55	4.1	2.0	4.1	84	1.6	8	23	247	0.00	1013.278	0	0.000	0
20080314 06:00	3.9	3.9	3.9	85	1.7	5	14	225	0.20	1013.244	0	0.020	0
20080314 06:05	3.9	2.3	3.9	85	1.6	6	16	247	0.20	1013.210	0	0.000	0
20080314 06:10	3.8	2.2	3.8	86	1.7	6	21	247	0.00	1013.075	0	0.000	0
20080314 06:15	3.7	1.6	3.7	86	1.5	8	19	247	0.20	1012.838	0	0.000	0
20080314 06:20	3.6	1.4	3.6	87	1.6	8	16	202	0.20	1012.736	0	0.000	0
20080314 06:25	3.5	1.9	3.5	88	1.7	6	19	202	0.20	1012.635	0	0.000	0
20080314 06:30	3.4	1.7	3.4	88	1.6	6	19	180	0.20	1012.567	0	0.000	0
20080314 06:35	3.3	3.3	3.3	88	1.5	3	11	180	0.00	1012.465	0	0.000	0
20080314 06:40	3.3	3.3	3.3	89	1.6	3	10	180	0.20	1012.364	0	0.000	0
20080314 06:45	3.2	3.2	3.2	89	1.6	3	10	180	0.20	1012.161	0	0.000	0
20080314 06:50	3.2	3.2	3.2	89	1.6	3	8	157	0.00	1011.991	0	0.000	0
20080314 06:55	3.2	3.2	3.2	90	1.7	3	11	180	0.20	1011.991	0	0.000	0
20080314 07:00	3.2	3.2	3.2	90	1.7	3	10	157	0.00	1011.957	0	0.000	0
20080314 07:05	3.2	3.2	3.2	90	1.7	3	10	180	0.00	1011.890	0	0.000	0
20080314 07:10	3.2	3.2	3.2	90	1.7	2	8	180	0.20	1011.822	3	0.000	0
20080314 07:15	3.3	3.3	3.3	90	1.8	3	11	157	0.20	1011.754	6	0.000	0
20080314 07:20	3.3	3.3	3.3	90	1.8	5	21	180	0.00	1011.788	7	0.000	0
20080314 07:25	3.3	3.3	3.3	90	1.9	3	14	180	0.20	1011.585	9	0.000	0
20080314 07:30	3.4	3.4	3.4	90	1.9	3	14	180	0.20	1011.449	12	0.000	0
20080314 07:35	3.4	3.4	3.4	90	2.0	5	19	180	0.00	1011.416	16	0.000	0
20080314 07:40	3.5	3.5	3.5	90	2.0	5	18	180	0.20	1011.449	14	0.000	0
20080314 07:45	3.6	3.6	3.6	90	2.1	5	11	202	0.20	1011.449	14	0.000	0
20080314 07:50	3.7	2.1	3.7	90	2.2	6	16	180	0.20	1011.449	14	0.000	0
20080314 07:55	3.7	1.6	3.7	90	2.2	8	16	202	0.00	1011.382	20	0.000	0
20080314 08:00	3.8	2.2	3.8	90	2.3	6	23	225	0.20	1011.280	19	0.000	0
20080314 08:05	3.8	1.8	3.8	91	2.5	8	18	202	0.20	1011.314	19	0.000	0
20080314 08:10	3.8	2.2	3.8	91	2.5	6	14	202	0.20	1011.280	18	0.000	0
20080314 08:15	3.9	2.3	3.9	91	2.6	6	16	225	0.40	1011.246	21	0.000	0
20080314 08:20	3.9	2.4	3.9	91	2.6	6	16	202	0.20	1011.314	20	0.000	0
20080314 08:25	4.1	2.0	4.1	91	2.7	8	19	225	0.20	1011.280	17	0.000	0
20080314 08:30	4.1	4.1	4.1	91	2.8	5	14	202	0.20	1011.382	16	0.000	0
20080314 08:35	4.2	2.6	4.2	91	2.8	6	14	225	0.20	1011.212	27	0.000	0
20080314 08:40	4.3	4.3	4.3	92	3.1	5	10	202	0.20	1011.280	25	0.000	0
20080314 08:45	4.4	4.4	4.4	92	3.2	5	10	225	0.20	1011.280	27	0.000	0
20080314 08:50	4.6	4.6	4.6	92	3.4	5	16	225	0.40	1011.212	30	0.000	0
20080314 08:55	4.8	3.3	4.8	92	3.6	6	18	225	0.20	1011.246	22	0.000	0
20080314 09:00	4.9	4.9	4.9	92	3.8	5	11	247	0.20	1011.280	21	0.020	0
20080314 09:05	5.0	5.0	5.0	92	3.8	5	13	225	0.20	1011.280	26	0.000	0
20080314 09:10	5.1	5.1	5.1	92	3.9	5	11	225	0.20	1011.179	27	0.000	0
20080314 09:15	5.2	3.4	5.2	92	4.0	8	19	247	0.20	1011.212	35	0.000	0
20080314 09:20	5.3	4.0	5.3	92	4.1	6	16	247	0.20	1011.145	22	0.000	0
20080314 09:25	5.4	4.1	5.4	92	4.2	6	14	225	0.20	1011.179	14	0.000	0
20080314 09:30	5.7	3.9	5.7	93	4.6	8	19	247	0.40	1011.179	25	0.000	0
20080314 09:35	5.9	4.2	5.9	93	4.9	8	14	247	0.00	1011.179	29	0.000	0
20080314 09:40	6.2	4.5	6.2	93	5.1	8	18	247	0.20	1011.179	31	0.000	0
20080314 09:45	6.4	4.8	6.4	93	5.4	8	19	247	0.20	1011.111	27	0.000	0
20080314 09:50	6.6	4.7	6.6	93	5.6	10	19	247	0.20	1011.077	33	0.000	0
20080314 09:55	6.8	4.9	6.8	93	5.7	10	23	247	0.20	1011.077	49	0.000	0
20080314 10:00	6.9	5.1	6.9	92	5.7	10	18	247	0.00	1011.077	45	0.020	0
20080314 10:05	7.1	5.2	7.1	92	5.8	10	26	247	0.00	1011.145	44	0.000	0
20080314 10:10	7.2	5.4	7.2	92	6.0	10	23	247	0.20	1011.009	55	0.000	0
20080314 10:15	7.3	5.2	7.3	91	6.0	11	21	247	0.00	1011.043	62	0.000	0
20080314 10:20	7.5	5.4	7.5	91	6.1	11	21	270	0.20	1011.077	66	0.000	0
20080314 10:25	7.6	5.6	7.6	90	6.1	11	23	247	0.00	1011.043	69	0.000	0
20080314 10:30	7.7	5.7	7.7	90	6.2	11	26	247	0.00	1011.077	65	0.000	0
20080314 10:35	7.8	5.8	7.8	90	6.3	11	21	247	0.20	1011.212	92	0.000	1
20080314 10:40	7.9	5.7	7.9	90	6.4	13	27	247	0.00	1010.975	91	0.000	1
20080314 10:45	8.1	5.6	8.1	89	6.4	14	26	247	0.00	1011.009	103	0.000	1
20080314 10:50	8.2	5.7	8.2	89	6.5	14	26	247	0.20	1010.941	91	0.000	1
20080314 10:55	8.3	5.7	8.3	88	6.4	16	27	247	0.00	1010.772	97	0.000	1
20080314 11:00	8.4	6.0	8.4	88	6.5	14	26	247	0.00	1010.874	71	0.040	1
20080314 11:05	8.4	6.1	8.4	87	6.4	14	27	270	0.00	1010.908	80	0.000	1
20080314 11:10	8.6	6.2	8.6	87	6.5	14	31	247	0.00	1010.840	79	0.000	1
20080314 11:15	8.6	6.1	8.6	87	6.6	16	31	247	0.00	1010.772	86	0.000	1
20080314 11:20	8.7	6.6	8.7	87	6.6	13	27	247	0.00	1010.840	72	0.000	1
20080314 11:25	8.7	6.4	8.7	86	6.5	14	27	247	0.00	1010.840	86	0.000	1
20080314 11:30	8.8	6.5	8.8	86	6.6	14	26	247	0.00	1010.772	76	0.000	1
20080314 11:35	8.9	6.4	8.9	85	6.5	16	29	247	0.00	1010.874	88	0.000	1
20080314 11:40	9.0	6.6	9.0	84	6.4	16	40	247	0.00	1010.840	99	0.000	1
20080314 11:45	9.2	6.6	9.2	84	6.7	18	31	247	0.00	1010.772	127	0.000	1
20080314 11:50	9.3	6.7	9.3	84	6.7	18	34	247	0.00	1010.772	108	0.000	1
20080314 11:55	9.3	6.9	9.3	84	6.7	16	31	247	0.00	1010.772	147	0.000	1
20080314 12:00	9.4	7.0	9.4	84	6.8	16	31	247	0.00	1010.704	137	0.060	1
20080314 12:05	9.4	7.1	9.4	84	6.9	16	32	247	0.00	1010.874	111	0.000	1
20080314 12:10	9.5	7.4	9.5	83	6.8	14	27	247	0.00	1010.975	128	0.000	1
20080314 12:15	9.6	7.2	9.6	84	7.0	16	27	247	0.00	1010.874	122	0.000	1
20080314 12:20	9.6	7.2	9.6	83	6.8	16	35	247	0.00	1010.738	145	0.000	1
20080314 12:25	9.7	7.2	9.7	82	6.7	18	31	247	0.00	1010.840	136	0.000	1
20080314 12:30	9.7	7.3	9.7	82	6.8	18	35	247	0.00	1010.840	134	0.000	1
20080314 12:35	9.8	7.2	9.8	81	6.7	19	32	247	0.00	1010.840	112	0.000	1
20080314 12:40	9.8	7.2	9.8	81	6.7	19	31	247	0.00	1010.874	115	0.000	1
20080314 12:45	9.8	7.6	9.8	81	6.7	16	37	247	0.00	1010.738	127	0.000	1
20080314 12:50	9.8	7.6	9.8	81	6.7	16	26	247	0.00	1010.738	115	0.000	1
20080314 12:55	9.8	7.2	9.8	81	6.7	19	39	247	0.00	1010.806	75	0.000	1
20080314 13:00	9.9	7.7	9.9	81	6.8	16	32	247	0.00	1010.840	131	0.060	1
20080314 13:05	9.9	7.9	9.9	81	6.8	14	32	247	0.00	1010.772	101	0.000	1
20080314 13:10	9.9	7.7	9.9	81	6.8	16	31	247	0.00	1010.738	101	0.000	1
20080314 13:15	9.9	7.7	9.9	81	6.8	16	34	247	0.00	1010.704	160	0.000	1
20080314 13:20	10.0	10.0	10.0	80	6.7	19	32	270	0.00	1010.738	114	0.000	1
20080314 13:25	10.1	10.1	10.1	81	6.9	18	29	247	0.00	1010.772	146	0.000	1
20080314 13:30	10.1	10.1	10.1	80	6.8	18	37	247	0.00	1010.569	163	0.000	1
20080314 13:35	10.1	10.1	10.1	80	6.8	19	37	247	0.00	1010.704	114	0.000	1
20080314 13:40	10.1	10.1	10.1	79	6.6	19	32	247	0.00	1010.569	90	0.000	1
20080314 13:45	10.1	10.1	10.1	80	6.8	14	27	247	0.00	1010.772	110	0.000	1
20080314 13:50	10.1	10.1	10.1	79	6.6	16	34	247	0.00	1010.535	109	0.000	1
20080314 13:55	10.1	10.1	10.1	80	6.8	14	29	270	0.00	1010.671	82	0.000	1
20080314 14:00	10.1	10.1	10.1	80	6.8	16	32	247	0.00	1010.671	92	0.060	1
20080314 14:05	10.1	10.1	10.1	79	6.6	16	29	247	0.00	1010.704	68	0.000	0
20080314 14:10	10.1	10.1	10.1	80	6.8	16	34	247	0.00	1010.840	60	0.000	0
20080314 14:15	9.9	7.5	9.9	81	6.8	18	31	247	0.00	1010.738	90	0.000	1
20080314 14:20	9.9	7.7	9.9	81	6.8	16	26	247	0.00	1010.772	102	0.000	1
20080314 14:25	9.9	7.9	9.9	81	6.8	14	27	247	0.00	1010.772	125	0.000	1
20080314 14:30	10.1	10.1	10.1	81	6.9	18	31	247	0.00	1010.806	149	0.000	1
20080314 14:35	10.3	10.3	10.3	80	7.0	19	35	247	0.00	1010.806	192	0.000	1
20080314 14:40	10.4	10.4	10.4	79	7.0	18	27	247	0.00	1010.637	227	0.000	2
20080314 14:45	10.6	10.6	10.6	79	7.1	18	34	247	0.00	1010.603	216	0.000	1
20080314 14:50	10.7	10.7	10.7	80	7.4	14	29	247	0.00	1010.671	212	0.000	1
20080314 14:55	10.7	10.7	10.7	79	7.2	18	43	247	0.00	1010.704	223	0.000	1
20080314 15:00	10.7	10.7	10.7	78	7.0	18	37	247	0.00	1010.671	219	0.080	1
20080314 15:05	10.6	10.6	10.6	79	7.1	19	32	247	0.00	1010.874	119	0.000	1
20080314 15:10	10.6	10.6	10.6	79	7.1	18	31	247	0.00	1010.874	135	0.000	1
20080314 15:15	10.6	10.6	10.6	79	7.1	18	37	247	0.00	1010.908	130	0.000	1
20080314 15:20	10.5	10.5	10.5	78	6.8	19	32	270	0.00	1010.772	94	0.000	1
20080314 15:25	10.5	10.5	10.5	79	7.0	14	35	247	0.00	1010.806	99	0.000	0
20080314 15:30	10.5	10.5	10.5	79	7.0	18	35	270	0.00	1010.738	92	0.000	0
20080314 15:35	10.6	10.6	10.6	79	7.1	18	34	247	0.00	1010.908	102	0.000	0
20080314 15:40	10.6	10.6	10.6	79	7.1	16	31	247	0.00	1010.908	67	0.000	0
20080314 15:45	10.5	10.5	10.5	79	7.0	16	32	270	0.00	1010.840	77	0.000	0
20080314 15:50	10.5	10.5	10.5	79	7.0	19	32	247	0.00	1010.874	48	0.000	0
20080314 15:55	10.4	10.4	10.4	79	7.0	14	34	247	0.00	1010.874	47	0.000	0
20080314 16:00	10.4	10.4	10.4	79	7.0	18	32	247	0.00	1010.806	41	0.060	0
20080314 16:05	10.4	10.4	10.4	78	6.7	16	32	247	0.00	1010.975	29	0.000	0
20080314 16:10	10.4	10.4	10.4	79	6.9	19	32	247	0.00	1010.806	21	0.000	0
20080314 16:15	10.3	10.3	10.3	79	6.8	16	34	247	0.00	1011.077	20	0.000	0
20080314 16:20	10.3	10.3	10.3	80	7.0	14	31	247	0.00	1011.043	18	0.000	0
20080314 16:25	10.3	10.3	10.3	79	6.8	19	34	247	0.00	1011.077	10	0.000	0
20080314 16:30	10.3	10.3	10.3	79	6.8	16	37	247	0.00	1011.280	12	0.000	0
20080314 16:35	10.3	10.3	10.3	79	6.8	14	29	247	0.00	1011.043	12	0.000	0
20080314 16:40	10.3	10.3	10.3	78	6.6	18	39	247	0.00	1011.280	11	0.000	0
20080314 16:45	10.3	10.3	10.3	79	6.8	16	29	247	0.00	1011.145	13	0.000	0
20080314 16:50	10.2	10.2	10.2	80	6.9	18	29	270	0.00	1011.314	13	0.000	0
20080314 16:55	10.1	10.1	10.1	80	6.8	16	29	247	0.00	1011.348	18	0.000	0
20080314 17:00	10.1	10.1	10.1	80	6.8	16	32	247	0.00	1011.314	19	0.040	0
20080314 17:05	10.1	10.1	10.1	81	6.9	13	26	247	0.00	1011.585	18	0.000	0
20080314 17:10	10.0	10.0	10.0	81	6.9	14	31	247	0.00	1011.585	16	0.000	0
20080314 17:15	10.0	10.0	10.0	81	6.9	14	26	247	0.00	1011.619	13	0.000	0
20080314 17:20	10.0	10.0	10.0	81	6.9	14	27	247	0.00	1011.686	11	0.000	0
20080314 17:25	9.9	7.9	9.9	81	6.8	14	29	247	0.00	1011.720	14	0.000	0
20080314 17:30	9.9	7.6	9.9	82	7.0	18	37	247	0.00	1011.720	12	0.000	0
20080314 17:35	9.8	7.8	9.8	82	6.9	14	31	247	0.00	1011.720	13	0.000	0
20080314 17:40	9.8	7.4	9.8	82	6.9	18	27	247	0.00	1011.788	17	0.000	0
20080314 17:45	9.9	7.7	9.9	81	6.8	16	31	247	0.00	1011.856	10	0.000	0
20080314 17:50	9.8	7.6	9.8	82	6.9	16	27	247	0.00	1011.924	7	0.000	0
20080314 17:55	9.8	7.7	9.8	83	7.0	14	24	247	0.20	1011.957	4	0.000	0
20080314 18:00	9.7	7.6	9.7	83	6.9	14	31	247	0.00	1011.991	0	0.020	0
20080314 18:05	9.7	8.0	9.7	83	6.9	11	23	247	0.00	1012.194	0	0.000	0
20080314 18:10	9.7	7.6	9.7	83	6.9	14	34	247	0.00	1012.161	0	0.000	0
20080314 18:15	9.7	7.5	9.7	82	6.8	16	27	247	0.00	1012.127	0	0.000	0
20080314 18:20	9.8	7.5	9.8	82	6.9	16	29	247	0.00	1012.093	0	0.000	0
20080314 18:25	9.8	7.9	9.8	82	6.9	13	27	247	0.00	1012.194	0	0.000	0
20080314 18:30	9.8	7.3	9.8	82	6.9	18	31	247	0.00	1012.330	0	0.000	0
20080314 18:35	9.8	7.9	9.8	82	6.9	13	23	247	0.00	1012.262	0	0.000	0
20080314 18:40	9.8	7.8	9.8	82	6.9	14	27	247	0.00	1012.398	0	0.000	0
20080314 18:45	9.8	8.0	9.8	82	6.9	13	26	247	0.00	1012.499	0	0.000	0
20080314 18:50	9.8	7.7	9.8	82	6.9	14	23	247	0.00	1012.431	0	0.000	0
20080314 18:55	9.8	7.8	9.8	82	6.9	14	24	247	0.00	1012.601	0	0.000	0
20080314 19:00	9.8	7.7	9.8	82	6.9	14	29	247	0.00	1012.669	0	0.020	0
20080314 19:05	9.7	7.9	9.7	83	7.0	13	24	247	0.00	1012.669	0	0.000	0
20080314 19:10	9.7	7.6	9.7	83	7.0	14	29	247	0.00	1012.770	0	0.000	0
20080314 19:15	9.7	7.8	9.7	83	6.9	13	29	247	0.00	1012.838	0	0.000	0
20080314 19:20	9.6	7.9	9.6	84	7.0	11	21	247	0.00	1012.804	0	0.000	0
20080314 19:25	9.6	7.9	9.6	84	7.0	11	26	247	0.00	1012.939	0	0.000	0
20080314 19:30	9.6	7.9	9.6	84	7.0	11	26	247	0.00	1012.906	0	0.000	0
20080314 19:35	9.6	7.7	9.6	84	7.0	13	21	247	0.00	1012.973	0	0.000	0
20080314 19:40	9.6	8.2	9.6	84	7.0	10	18	247	0.00	1013.143	0	0.000	0
20080314 19:45	9.5	8.1	9.5	84	6.9	10	21	247	0.00	1013.312	0	0.000	0
20080314 19:50	9.5	7.8	9.5	84	6.9	11	19	247	0.00	1013.346	0	0.000	0
20080314 19:55	9.5	8.1	9.5	84	6.9	10	19	247	0.00	1013.346	0	0.000	0
20080314 20:00	9.5	8.1	9.5	84	6.9	10	19	270	0.00	1013.515	0	0.020	0
20080314 20:05	9.4	8.0	9.4	85	7.0	10	18	270	0.00	1013.481	0	0.000	0
20080314 20:10	8.9	8.9	8.9	84	6.4	5	21	337	0.00	1013.651	0	0.000	0
20080314 20:15	8.3	7.4	8.3	85	6.0	6	14	315	0.20	1014.057	0	0.000	0
20080314 20:20	7.8	7.8	7.8	87	5.8	5	11	337	0.00	1014.125	0	0.000	0
20080314 20:25	7.4	6.0	7.4	89	5.7	8	21	315	0.20	1014.125	0	0.000	0
20080314 20:30	7.2	5.7	7.2	90	5.6	8	18	315	0.00	1014.328	0	0.000	0
20080314 20:35	7.0	5.9	7.0	90	5.5	6	14	0	0.20	1014.362	0	0.000	0
20080314 20:40	6.8	5.7	6.8	90	5.3	6	18	315	0.20	1014.396	0	0.000	0
20080314 20:45	6.8	6.8	6.8	90	5.3	5	10	22	0.00	1014.565	0	0.000	0
20080314 20:50	6.7	5.6	6.7	91	5.4	6	14	315	0.20	1014.565	0	0.000	0
20080314 20:55	6.7	6.7	6.7	91	5.4	5	14	315	0.20	1014.768	0	0.000	0
20080314 21:00	6.7	5.5	6.7	91	5.3	6	18	315	0.00	1014.802	0	0.000	0
20080314 21:05	6.6	6.6	6.6	91	5.2	5	10	315	0.20	1014.497	0	0.000	0
20080314 21:10	6.6	6.6	6.6	91	5.2	5	11	315	0.00	1014.633	0	0.000	0
20080314 21:15	6.6	6.6	6.6	92	5.3	5	8	315	0.40	1014.463	0	0.000	0
20080314 21:20	6.6	6.6	6.6	92	5.3	3	5	337	0.00	1014.463	0	0.000	0
20080314 21:25	6.5	6.5	6.5	92	5.3	3	6	315	0.20	1014.666	0	0.000	0
20080314 21:30	6.5	6.5	6.5	92	5.3	3	8	315	0.20	1014.802	0	0.000	0
20080314 21:35	6.5	6.5	6.5	92	5.3	3	6	315	0.40	1014.633	0	0.000	0
20080314 21:40	6.5	6.5	6.5	92	5.3	3	5	315	0.20	1014.700	0	0.000	0
20080314 21:45	6.5	6.5	6.5	93	5.5	3	8	315	0.00	1014.870	0	0.000	0
20080314 21:50	6.5	6.5	6.5	93	5.5	5	10	315	0.20	1014.870	0	0.000	0
20080314 21:55	6.5	6.5	6.5	93	5.5	3	8	292	0.20	1014.870	0	0.000	0
20080314 22:00	6.5	6.5	6.5	93	5.5	0	3	292	0.20	1014.870	0	0.000	0
20080314 22:05	6.5	6.5	6.5	93	5.5	0	2	292	0.00	1014.700	0	0.000	0
20080314 22:10	6.6	6.6	6.6	93	5.5	2	5	292	0.00	1014.768	0	0.000	0
20080314 22:15	6.6	6.6	6.6	93	5.5	2	5	292	0.20	1014.802	0	0.000	0
20080314 22:20	6.6	6.6	6.6	93	5.5	2	5	292	0.00	1014.802	0	0.000	0
20080314 22:25	6.6	6.6	6.6	93	5.5	2	5	292	0.20	1014.870	0	0.000	0
20080314 22:30	6.6	6.6	6.6	93	5.6	5	8	292	0.00	1014.904	0	0.000	0
20080314 22:35	6.6	6.6	6.6	93	5.6	5	10	270	0.20	1015.005	0	0.000	0
20080314 22:40	6.6	6.6	6.6	93	5.6	5	10	292	0.00	1014.971	0	0.000	0
20080314 22:45	6.6	5.4	6.6	93	5.5	6	11	292	0.00	1015.039	0	0.000	0
20080314 22:50	6.6	6.6	6.6	93	5.5	5	10	292	0.00	1015.107	0	0.000	0
20080314 22:55	6.6	6.6	6.6	93	5.5	5	8	292	0.20	1015.174	0	0.000	0
20080314 23:00	6.6	6.6	6.6	94	5.7	5	8	292	0.00	1015.208	0	0.000	0
20080314 23:05	6.6	6.6	6.6	93	5.5	3	6	292	0.20	1015.073	0	0.000	0
20080314 23:10	6.6	6.6	6.6	94	5.7	3	6	292	0.00	1015.107	0	0.000	0
20080314 23:15	6.6	6.6	6.6	94	5.7	3	6	292	0.20	1015.141	0	0.000	0
20080314 23:20	6.6	6.6	6.6	94	5.7	3	6	292	0.00	1015.174	0	0.000	0
20080314 23:25	6.6	6.6	6.6	94	5.7	3	6	292	0.20	1015.276	0	0.000	0
20080314 23:30	6.6	6.6	6.6	94	5.7	3	6	292	0.20	1015.310	0	0.000	0
20080314 23:35	6.6	6.6	6.6	94	5.7	5	8	315	0.20	1015.411	0	0.000	0
20080314 23:40	6.6	4.6	6.6	93	5.5	10	23	292	0.20	1015.479	0	0.000	0
20080314 23:45	6.4	4.2	6.4	93	5.4	11	18	315	0.00	1015.479	0	0.000	0
20080314 23:50	6.4	4.2	6.4	93	5.4	11	26	292	0.20	1015.547	0	0.000	0
20080314 23:55	6.3	4.0	6.3	93	5.3	11	19	315	0.00	1015.649	0	0.000	0
20080314 24:00	6.2	3.8	6.2	92	5.0	11	23	315	0.00	1015.682	0	0.000	0



Please note the license to use and transfer of this data:
http://creativecommons.org/licenses/by-nc-sa/3.0/deed.en

Bitte beachten sie die Lizenz zur Verwertung und Weitergabe der Daten:
http://creativecommons.org/licenses/by-nc-sa/3.0/deed.de

zurück zur Übersicht der Archivdaten (Monats und Tagesdaten)

Cookies helfen bei der Bereitstellung von Inhalten. Durch die Nutzung dieser Seiten erklärst du dich damit einverstanden, dass Cookies auf deinem Rechner gespeichert werden. Weitere Information